sensor_id;sensor_type;location;lat;lon;timestamp;P1;durP1;ratioP1;P2;durP2;ratioP2
7933;SDS011;4012;48.896;9.192;2022-12-07T00:01:04;6.43;;;4.77;;
7933;SDS011;4012;48.896;9.192;2022-12-07T00:03:34;5.47;;;4.50;;
7933;SDS011;4012;48.896;9.192;2022-12-07T00:06:02;6.10;;;4.23;;
7933;SDS011;4012;48.896;9.192;2022-12-07T00:08:30;5.60;;;4.17;;
7933;SDS011;4012;48.896;9.192;2022-12-07T00:11:00;6.90;;;5.00;;
7933;SDS011;4012;48.896;9.192;2022-12-07T00:13:27;6.87;;;4.60;;
7933;SDS011;4012;48.896;9.192;2022-12-07T00:15:52;7.47;;;4.83;;
7933;SDS011;4012;48.896;9.192;2022-12-07T00:18:18;6.57;;;5.17;;
7933;SDS011;4012;48.896;9.192;2022-12-07T00:20:43;5.27;;;4.40;;
7933;SDS011;4012;48.896;9.192;2022-12-07T00:23:09;6.33;;;4.37;;
7933;SDS011;4012;48.896;9.192;2022-12-07T00:25:34;8.07;;;4.50;;
7933;SDS011;4012;48.896;9.192;2022-12-07T00:28:00;6.10;;;4.90;;
7933;SDS011;4012;48.896;9.192;2022-12-07T00:30:26;6.87;;;5.27;;
7933;SDS011;4012;48.896;9.192;2022-12-07T00:32:51;7.40;;;4.83;;
7933;SDS011;4012;48.896;9.192;2022-12-07T00:35:19;8.77;;;5.10;;
7933;SDS011;4012;48.896;9.192;2022-12-07T00:37:44;6.80;;;5.00;;
7933;SDS011;4012;48.896;9.192;2022-12-07T00:40:10;5.33;;;4.33;;
7933;SDS011;4012;48.896;9.192;2022-12-07T00:42:36;6.00;;;4.77;;
7933;SDS011;4012;48.896;9.192;2022-12-07T00:45:02;7.07;;;5.27;;
7933;SDS011;4012;48.896;9.192;2022-12-07T00:47:28;5.50;;;4.47;;
7933;SDS011;4012;48.896;9.192;2022-12-07T00:49:53;7.43;;;5.20;;
7933;SDS011;4012;48.896;9.192;2022-12-07T00:52:19;7.23;;;4.83;;
7933;SDS011;4012;48.896;9.192;2022-12-07T00:54:44;5.43;;;4.23;;
7933;SDS011;4012;48.896;9.192;2022-12-07T00:57:10;5.23;;;4.43;;
7933;SDS011;4012;48.896;9.192;2022-12-07T00:59:35;8.20;;;5.30;;
7933;SDS011;4012;48.896;9.192;2022-12-07T01:02:01;7.60;;;5.40;;
7933;SDS011;4012;48.896;9.192;2022-12-07T01:04:26;6.07;;;4.67;;
7933;SDS011;4012;48.896;9.192;2022-12-07T01:06:52;7.70;;;5.93;;
7933;SDS011;4012;48.896;9.192;2022-12-07T01:09:18;7.90;;;5.03;;
7933;SDS011;4012;48.896;9.192;2022-12-07T01:11:43;6.23;;;4.90;;
7933;SDS011;4012;48.896;9.192;2022-12-07T01:14:09;8.47;;;5.43;;
7933;SDS011;4012;48.896;9.192;2022-12-07T01:16:34;7.87;;;5.87;;
7933;SDS011;4012;48.896;9.192;2022-12-07T01:19:00;5.97;;;5.23;;
7933;SDS011;4012;48.896;9.192;2022-12-07T01:21:27;7.63;;;6.10;;
7933;SDS011;4012;48.896;9.192;2022-12-07T01:23:56;7.17;;;5.57;;
7933;SDS011;4012;48.896;9.192;2022-12-07T01:26:23;9.27;;;6.17;;
7933;SDS011;4012;48.896;9.192;2022-12-07T01:28:50;7.47;;;5.00;;
7933;SDS011;4012;48.896;9.192;2022-12-07T01:31:17;5.70;;;5.10;;
7933;SDS011;4012;48.896;9.192;2022-12-07T01:33:46;7.63;;;5.83;;
7933;SDS011;4012;48.896;9.192;2022-12-07T01:36:14;5.63;;;4.70;;
7933;SDS011;4012;48.896;9.192;2022-12-07T01:38:48;6.80;;;5.07;;
7933;SDS011;4012;48.896;9.192;2022-12-07T01:41:19;7.57;;;5.40;;
7933;SDS011;4012;48.896;9.192;2022-12-07T01:46:53;6.90;;;5.47;;
7933;SDS011;4012;48.896;9.192;2022-12-07T01:49:31;8.10;;;5.30;;
7933;SDS011;4012;48.896;9.192;2022-12-07T01:54:45;7.33;;;5.30;;
7933;SDS011;4012;48.896;9.192;2022-12-07T01:57:14;9.40;;;5.30;;
7933;SDS011;4012;48.896;9.192;2022-12-07T01:59:42;6.83;;;5.30;;
7933;SDS011;4012;48.896;9.192;2022-12-07T02:05:03;7.67;;;5.27;;
7933;SDS011;4012;48.896;9.192;2022-12-07T02:07:30;6.90;;;5.33;;
7933;SDS011;4012;48.896;9.192;2022-12-07T02:09:57;5.90;;;4.73;;
7933;SDS011;4012;48.896;9.192;2022-12-07T02:12:37;6.77;;;4.83;;
7933;SDS011;4012;48.896;9.192;2022-12-07T02:15:03;9.33;;;5.80;;
7933;SDS011;4012;48.896;9.192;2022-12-07T02:17:32;7.30;;;5.57;;
7933;SDS011;4012;48.896;9.192;2022-12-07T02:20:21;7.13;;;5.50;;
7933;SDS011;4012;48.896;9.192;2022-12-07T02:23:14;6.23;;;4.83;;
7933;SDS011;4012;48.896;9.192;2022-12-07T02:31:38;6.97;;;5.30;;
7933;SDS011;4012;48.896;9.192;2022-12-07T02:34:15;7.43;;;5.17;;
7933;SDS011;4012;48.896;9.192;2022-12-07T02:36:55;6.67;;;5.27;;
7933;SDS011;4012;48.896;9.192;2022-12-07T02:39:34;6.47;;;5.27;;
7933;SDS011;4012;48.896;9.192;2022-12-07T02:42:14;6.87;;;5.13;;
7933;SDS011;4012;48.896;9.192;2022-12-07T02:44:42;5.80;;;4.97;;
7933;SDS011;4012;48.896;9.192;2022-12-07T02:47:11;5.97;;;4.83;;
7933;SDS011;4012;48.896;9.192;2022-12-07T02:49:39;6.07;;;5.17;;
7933;SDS011;4012;48.896;9.192;2022-12-07T02:52:05;5.23;;;4.57;;
7933;SDS011;4012;48.896;9.192;2022-12-07T02:54:31;6.53;;;5.43;;
7933;SDS011;4012;48.896;9.192;2022-12-07T02:57:14;8.10;;;4.33;;
7933;SDS011;4012;48.896;9.192;2022-12-07T03:11:16;6.27;;;5.17;;
7933;SDS011;4012;48.896;9.192;2022-12-07T03:14:09;5.70;;;4.83;;
7933;SDS011;4012;48.896;9.192;2022-12-07T03:16:42;5.67;;;4.63;;
7933;SDS011;4012;48.896;9.192;2022-12-07T03:19:16;5.90;;;4.83;;
7933;SDS011;4012;48.896;9.192;2022-12-07T03:21:46;5.33;;;4.50;;
7933;SDS011;4012;48.896;9.192;2022-12-07T03:24:17;6.20;;;4.63;;
7933;SDS011;4012;48.896;9.192;2022-12-07T03:26:47;5.87;;;4.73;;
7933;SDS011;4012;48.896;9.192;2022-12-07T03:29:27;5.80;;;4.43;;
7933;SDS011;4012;48.896;9.192;2022-12-07T03:32:00;6.10;;;4.77;;
7933;SDS011;4012;48.896;9.192;2022-12-07T03:34:34;6.83;;;5.67;;
7933;SDS011;4012;48.896;9.192;2022-12-07T03:37:10;7.57;;;4.97;;
7933;SDS011;4012;48.896;9.192;2022-12-07T03:40:02;5.93;;;4.60;;
7933;SDS011;4012;48.896;9.192;2022-12-07T03:42:29;6.57;;;4.80;;
7933;SDS011;4012;48.896;9.192;2022-12-07T03:44:57;7.67;;;5.00;;
7933;SDS011;4012;48.896;9.192;2022-12-07T03:47:35;5.70;;;4.23;;
7933;SDS011;4012;48.896;9.192;2022-12-07T03:50:23;5.93;;;4.83;;
7933;SDS011;4012;48.896;9.192;2022-12-07T03:53:03;8.73;;;5.53;;
7933;SDS011;4012;48.896;9.192;2022-12-07T03:55:35;7.57;;;5.10;;
7933;SDS011;4012;48.896;9.192;2022-12-07T03:58:09;6.60;;;5.50;;
7933;SDS011;4012;48.896;9.192;2022-12-07T04:00:37;6.47;;;4.73;;
7933;SDS011;4012;48.896;9.192;2022-12-07T04:03:03;8.40;;;5.87;;
7933;SDS011;4012;48.896;9.192;2022-12-07T04:05:28;9.00;;;5.87;;
7933;SDS011;4012;48.896;9.192;2022-12-07T04:07:54;6.60;;;5.13;;
7933;SDS011;4012;48.896;9.192;2022-12-07T04:10:20;8.53;;;5.37;;
7933;SDS011;4012;48.896;9.192;2022-12-07T04:12:45;7.30;;;5.37;;
7933;SDS011;4012;48.896;9.192;2022-12-07T04:15:11;8.67;;;6.07;;
7933;SDS011;4012;48.896;9.192;2022-12-07T04:17:37;7.47;;;6.23;;
7933;SDS011;4012;48.896;9.192;2022-12-07T04:20:03;8.73;;;6.47;;
7933;SDS011;4012;48.896;9.192;2022-12-07T04:22:29;7.70;;;5.80;;
7933;SDS011;4012;48.896;9.192;2022-12-07T04:24:55;7.87;;;5.87;;
7933;SDS011;4012;48.896;9.192;2022-12-07T04:27:20;6.70;;;6.00;;
7933;SDS011;4012;48.896;9.192;2022-12-07T04:29:46;8.23;;;5.97;;
7933;SDS011;4012;48.896;9.192;2022-12-07T04:32:11;6.87;;;5.13;;
7933;SDS011;4012;48.896;9.192;2022-12-07T04:34:37;6.70;;;4.97;;
7933;SDS011;4012;48.896;9.192;2022-12-07T04:37:02;7.77;;;5.60;;
7933;SDS011;4012;48.896;9.192;2022-12-07T04:39:32;7.20;;;5.13;;
7933;SDS011;4012;48.896;9.192;2022-12-07T04:42:01;5.83;;;5.07;;
7933;SDS011;4012;48.896;9.192;2022-12-07T04:44:27;7.73;;;5.40;;
7933;SDS011;4012;48.896;9.192;2022-12-07T04:46:54;7.27;;;5.20;;
7933;SDS011;4012;48.896;9.192;2022-12-07T04:49:20;6.67;;;5.03;;
7933;SDS011;4012;48.896;9.192;2022-12-07T04:51:46;9.07;;;5.53;;
7933;SDS011;4012;48.896;9.192;2022-12-07T04:54:13;8.30;;;5.17;;
7933;SDS011;4012;48.896;9.192;2022-12-07T04:56:40;8.03;;;5.50;;
7933;SDS011;4012;48.896;9.192;2022-12-07T04:59:06;8.67;;;5.77;;
7933;SDS011;4012;48.896;9.192;2022-12-07T05:01:32;6.63;;;5.53;;
7933;SDS011;4012;48.896;9.192;2022-12-07T05:03:59;6.97;;;5.17;;
7933;SDS011;4012;48.896;9.192;2022-12-07T05:06:25;8.10;;;5.60;;
7933;SDS011;4012;48.896;9.192;2022-12-07T05:08:50;6.27;;;5.23;;
7933;SDS011;4012;48.896;9.192;2022-12-07T05:11:16;7.83;;;5.77;;
7933;SDS011;4012;48.896;9.192;2022-12-07T05:14:01;9.00;;;5.80;;
7933;SDS011;4012;48.896;9.192;2022-12-07T05:16:27;9.43;;;5.90;;
7933;SDS011;4012;48.896;9.192;2022-12-07T05:18:53;6.63;;;5.10;;
7933;SDS011;4012;48.896;9.192;2022-12-07T05:21:18;7.77;;;6.23;;
7933;SDS011;4012;48.896;9.192;2022-12-07T05:23:44;6.00;;;4.60;;
7933;SDS011;4012;48.896;9.192;2022-12-07T05:26:10;7.30;;;5.57;;
7933;SDS011;4012;48.896;9.192;2022-12-07T05:28:35;7.23;;;6.03;;
7933;SDS011;4012;48.896;9.192;2022-12-07T05:31:01;9.80;;;6.40;;
7933;SDS011;4012;48.896;9.192;2022-12-07T05:33:27;9.90;;;6.37;;
7933;SDS011;4012;48.896;9.192;2022-12-07T05:35:52;7.73;;;5.40;;
7933;SDS011;4012;48.896;9.192;2022-12-07T05:38:18;8.50;;;5.93;;
7933;SDS011;4012;48.896;9.192;2022-12-07T05:40:43;7.60;;;5.47;;
7933;SDS011;4012;48.896;9.192;2022-12-07T05:43:09;8.90;;;6.07;;
7933;SDS011;4012;48.896;9.192;2022-12-07T05:45:35;8.43;;;5.37;;
7933;SDS011;4012;48.896;9.192;2022-12-07T05:48:01;11.03;;;6.63;;
7933;SDS011;4012;48.896;9.192;2022-12-07T05:50:26;7.80;;;5.57;;
7933;SDS011;4012;48.896;9.192;2022-12-07T05:52:53;5.93;;;4.80;;
7933;SDS011;4012;48.896;9.192;2022-12-07T05:55:19;9.07;;;5.93;;
7933;SDS011;4012;48.896;9.192;2022-12-07T05:57:44;7.83;;;5.33;;
7933;SDS011;4012;48.896;9.192;2022-12-07T06:00:30;7.40;;;5.63;;
7933;SDS011;4012;48.896;9.192;2022-12-07T06:02:56;7.37;;;5.40;;
7933;SDS011;4012;48.896;9.192;2022-12-07T06:05:21;7.43;;;5.37;;
7933;SDS011;4012;48.896;9.192;2022-12-07T06:07:47;7.27;;;5.90;;
7933;SDS011;4012;48.896;9.192;2022-12-07T06:10:13;7.83;;;6.30;;
7933;SDS011;4012;48.896;9.192;2022-12-07T06:12:38;7.67;;;5.07;;
7933;SDS011;4012;48.896;9.192;2022-12-07T06:15:07;7.23;;;5.73;;
7933;SDS011;4012;48.896;9.192;2022-12-07T06:17:34;8.97;;;5.80;;
7933;SDS011;4012;48.896;9.192;2022-12-07T06:20:00;9.50;;;5.77;;
7933;SDS011;4012;48.896;9.192;2022-12-07T06:22:26;7.40;;;5.33;;
7933;SDS011;4012;48.896;9.192;2022-12-07T06:24:51;6.20;;;5.23;;
7933;SDS011;4012;48.896;9.192;2022-12-07T06:27:17;8.63;;;5.50;;
7933;SDS011;4012;48.896;9.192;2022-12-07T06:29:42;9.20;;;5.00;;
7933;SDS011;4012;48.896;9.192;2022-12-07T06:32:08;10.00;;;6.87;;
7933;SDS011;4012;48.896;9.192;2022-12-07T06:34:34;6.73;;;5.30;;
7933;SDS011;4012;48.896;9.192;2022-12-07T06:37:00;6.73;;;4.70;;
7933;SDS011;4012;48.896;9.192;2022-12-07T06:39:26;6.20;;;4.47;;
7933;SDS011;4012;48.896;9.192;2022-12-07T06:41:53;6.93;;;4.63;;
7933;SDS011;4012;48.896;9.192;2022-12-07T06:44:19;7.20;;;4.57;;
7933;SDS011;4012;48.896;9.192;2022-12-07T06:46:46;6.10;;;4.60;;
7933;SDS011;4012;48.896;9.192;2022-12-07T06:49:12;5.13;;;3.97;;
7933;SDS011;4012;48.896;9.192;2022-12-07T06:51:38;6.60;;;4.67;;
7933;SDS011;4012;48.896;9.192;2022-12-07T06:54:15;7.27;;;4.93;;
7933;SDS011;4012;48.896;9.192;2022-12-07T06:56:41;6.88;;;5.13;;
7933;SDS011;4012;48.896;9.192;2022-12-07T06:59:07;6.50;;;4.63;;
7933;SDS011;4012;48.896;9.192;2022-12-07T07:01:33;6.13;;;4.17;;
7933;SDS011;4012;48.896;9.192;2022-12-07T07:03:59;7.47;;;4.10;;
7933;SDS011;4012;48.896;9.192;2022-12-07T07:06:25;6.87;;;4.40;;
7933;SDS011;4012;48.896;9.192;2022-12-07T07:08:51;5.30;;;3.83;;
7933;SDS011;4012;48.896;9.192;2022-12-07T07:11:17;8.47;;;4.70;;
7933;SDS011;4012;48.896;9.192;2022-12-07T07:13:43;7.43;;;4.53;;
7933;SDS011;4012;48.896;9.192;2022-12-07T07:16:09;7.93;;;4.27;;
7933;SDS011;4012;48.896;9.192;2022-12-07T07:18:35;7.60;;;4.43;;
7933;SDS011;4012;48.896;9.192;2022-12-07T07:21:01;5.30;;;4.23;;
7933;SDS011;4012;48.896;9.192;2022-12-07T07:23:35;6.80;;;4.34;;
7933;SDS011;4012;48.896;9.192;2022-12-07T07:26:00;7.50;;;4.83;;
7933;SDS011;4012;48.896;9.192;2022-12-07T07:28:26;5.47;;;4.27;;
7933;SDS011;4012;48.896;9.192;2022-12-07T07:30:51;6.83;;;4.73;;
7933;SDS011;4012;48.896;9.192;2022-12-07T07:33:17;8.47;;;4.70;;
7933;SDS011;4012;48.896;9.192;2022-12-07T07:35:43;8.10;;;4.07;;
7933;SDS011;4012;48.896;9.192;2022-12-07T07:38:08;5.77;;;4.53;;
7933;SDS011;4012;48.896;9.192;2022-12-07T07:40:34;4.90;;;3.67;;
7933;SDS011;4012;48.896;9.192;2022-12-07T07:43:00;4.53;;;3.83;;
7933;SDS011;4012;48.896;9.192;2022-12-07T07:45:26;6.03;;;3.60;;
7933;SDS011;4012;48.896;9.192;2022-12-07T07:47:52;17.27;;;4.77;;
7933;SDS011;4012;48.896;9.192;2022-12-07T07:50:19;7.37;;;3.83;;
7933;SDS011;4012;48.896;9.192;2022-12-07T07:52:45;6.00;;;3.90;;
7933;SDS011;4012;48.896;9.192;2022-12-07T07:55:11;7.83;;;4.73;;
7933;SDS011;4012;48.896;9.192;2022-12-07T07:57:37;7.07;;;5.00;;
7933;SDS011;4012;48.896;9.192;2022-12-07T08:00:04;11.13;;;5.73;;
7933;SDS011;4012;48.896;9.192;2022-12-07T08:02:32;8.83;;;4.80;;
7933;SDS011;4012;48.896;9.192;2022-12-07T08:04:58;7.27;;;4.37;;
7933;SDS011;4012;48.896;9.192;2022-12-07T08:07:23;6.57;;;4.53;;
7933;SDS011;4012;48.896;9.192;2022-12-07T08:09:49;8.57;;;5.20;;
7933;SDS011;4012;48.896;9.192;2022-12-07T08:12:14;10.57;;;5.13;;
7933;SDS011;4012;48.896;9.192;2022-12-07T08:14:40;6.23;;;4.50;;
7933;SDS011;4012;48.896;9.192;2022-12-07T08:17:06;9.07;;;4.50;;
7933;SDS011;4012;48.896;9.192;2022-12-07T08:19:31;9.73;;;4.53;;
7933;SDS011;4012;48.896;9.192;2022-12-07T08:21:58;11.57;;;5.50;;
7933;SDS011;4012;48.896;9.192;2022-12-07T08:24:23;8.80;;;4.97;;
7933;SDS011;4012;48.896;9.192;2022-12-07T08:26:50;10.00;;;5.30;;
7933;SDS011;4012;48.896;9.192;2022-12-07T08:29:16;8.27;;;5.10;;
7933;SDS011;4012;48.896;9.192;2022-12-07T08:31:51;15.33;;;6.20;;
7933;SDS011;4012;48.896;9.192;2022-12-07T08:34:17;8.60;;;4.63;;
7933;SDS011;4012;48.896;9.192;2022-12-07T08:36:43;6.23;;;4.80;;
7933;SDS011;4012;48.896;9.192;2022-12-07T08:39:08;6.43;;;4.67;;
7933;SDS011;4012;48.896;9.192;2022-12-07T08:41:34;5.90;;;4.20;;
7933;SDS011;4012;48.896;9.192;2022-12-07T08:43:59;10.03;;;4.73;;
7933;SDS011;4012;48.896;9.192;2022-12-07T08:46:26;8.40;;;5.23;;
7933;SDS011;4012;48.896;9.192;2022-12-07T08:51:31;4.97;;;3.77;;
7933;SDS011;4012;48.896;9.192;2022-12-07T08:53:57;6.63;;;4.70;;
7933;SDS011;4012;48.896;9.192;2022-12-07T08:56:25;6.73;;;4.17;;
7933;SDS011;4012;48.896;9.192;2022-12-07T08:58:51;21.90;;;15.83;;
7933;SDS011;4012;48.896;9.192;2022-12-07T09:01:17;11.90;;;9.27;;
7933;SDS011;4012;48.896;9.192;2022-12-07T09:03:43;10.03;;;5.60;;
7933;SDS011;4012;48.896;9.192;2022-12-07T09:06:09;6.70;;;4.10;;
7933;SDS011;4012;48.896;9.192;2022-12-07T09:08:36;7.10;;;4.47;;
7933;SDS011;4012;48.896;9.192;2022-12-07T09:11:05;6.67;;;4.37;;
7933;SDS011;4012;48.896;9.192;2022-12-07T09:13:31;4.30;;;3.67;;
7933;SDS011;4012;48.896;9.192;2022-12-07T09:15:56;6.93;;;4.33;;
7933;SDS011;4012;48.896;9.192;2022-12-07T09:18:22;5.83;;;4.47;;
7933;SDS011;4012;48.896;9.192;2022-12-07T09:20:49;5.13;;;4.00;;
7933;SDS011;4012;48.896;9.192;2022-12-07T09:23:14;5.33;;;3.77;;
7933;SDS011;4012;48.896;9.192;2022-12-07T09:25:40;6.37;;;5.07;;
7933;SDS011;4012;48.896;9.192;2022-12-07T09:28:06;5.00;;;3.77;;
7933;SDS011;4012;48.896;9.192;2022-12-07T09:30:31;5.57;;;3.33;;
7933;SDS011;4012;48.896;9.192;2022-12-07T09:32:57;4.50;;;3.23;;
7933;SDS011;4012;48.896;9.192;2022-12-07T09:35:23;4.53;;;3.23;;
7933;SDS011;4012;48.896;9.192;2022-12-07T09:37:50;5.33;;;3.57;;
7933;SDS011;4012;48.896;9.192;2022-12-07T09:40:16;5.97;;;3.13;;
7933;SDS011;4012;48.896;9.192;2022-12-07T09:42:45;6.30;;;3.60;;
7933;SDS011;4012;48.896;9.192;2022-12-07T09:45:16;4.33;;;3.40;;
7933;SDS011;4012;48.896;9.192;2022-12-07T09:47:46;4.63;;;3.50;;
7933;SDS011;4012;48.896;9.192;2022-12-07T09:50:13;4.17;;;3.40;;
7933;SDS011;4012;48.896;9.192;2022-12-07T09:52:42;4.37;;;3.67;;
7933;SDS011;4012;48.896;9.192;2022-12-07T09:55:12;4.23;;;3.60;;
7933;SDS011;4012;48.896;9.192;2022-12-07T09:57:40;10.23;;;6.03;;
7933;SDS011;4012;48.896;9.192;2022-12-07T10:00:14;13.70;;;9.03;;
7933;SDS011;4012;48.896;9.192;2022-12-07T10:02:47;7.70;;;5.17;;
7933;SDS011;4012;48.896;9.192;2022-12-07T10:05:19;6.33;;;4.90;;
7933;SDS011;4012;48.896;9.192;2022-12-07T10:07:50;5.80;;;4.70;;
7933;SDS011;4012;48.896;9.192;2022-12-07T10:10:17;6.20;;;3.30;;
7933;SDS011;4012;48.896;9.192;2022-12-07T10:13:02;7.90;;;5.87;;
7933;SDS011;4012;48.896;9.192;2022-12-07T10:15:43;5.70;;;4.57;;
7933;SDS011;4012;48.896;9.192;2022-12-07T10:18:30;6.30;;;4.43;;
7933;SDS011;4012;48.896;9.192;2022-12-07T10:23:40;4.80;;;2.87;;
7933;SDS011;4012;48.896;9.192;2022-12-07T10:26:21;4.23;;;2.83;;
7933;SDS011;4012;48.896;9.192;2022-12-07T10:28:47;3.03;;;2.60;;
7933;SDS011;4012;48.896;9.192;2022-12-07T10:31:17;5.13;;;3.70;;
7933;SDS011;4012;48.896;9.192;2022-12-07T10:34:14;3.70;;;3.30;;
7933;SDS011;4012;48.896;9.192;2022-12-07T10:36:45;4.90;;;3.23;;
7933;SDS011;4012;48.896;9.192;2022-12-07T10:39:11;4.00;;;2.80;;
7933;SDS011;4012;48.896;9.192;2022-12-07T10:41:57;5.57;;;3.77;;
7933;SDS011;4012;48.896;9.192;2022-12-07T10:44:28;8.17;;;5.97;;
7933;SDS011;4012;48.896;9.192;2022-12-07T10:47:00;7.90;;;4.17;;
7933;SDS011;4012;48.896;9.192;2022-12-07T10:52:18;6.57;;;5.80;;
7933;SDS011;4012;48.896;9.192;2022-12-07T10:55:08;4.77;;;3.87;;
7933;SDS011;4012;48.896;9.192;2022-12-07T10:57:45;7.53;;;6.80;;
7933;SDS011;4012;48.896;9.192;2022-12-07T11:00:21;4.97;;;3.20;;
7933;SDS011;4012;48.896;9.192;2022-12-07T11:05:26;7.47;;;4.67;;
7933;SDS011;4012;48.896;9.192;2022-12-07T11:08:05;4.47;;;3.50;;
7933;SDS011;4012;48.896;9.192;2022-12-07T11:10:43;5.30;;;4.40;;
7933;SDS011;4012;48.896;9.192;2022-12-07T11:16:27;6.23;;;3.80;;
7933;SDS011;4012;48.896;9.192;2022-12-07T11:19:39;9.27;;;7.20;;
7933;SDS011;4012;48.896;9.192;2022-12-07T11:30:57;5.63;;;4.43;;
7933;SDS011;4012;48.896;9.192;2022-12-07T11:33:27;8.57;;;5.30;;
7933;SDS011;4012;48.896;9.192;2022-12-07T11:36:02;9.07;;;4.90;;
7933;SDS011;4012;48.896;9.192;2022-12-07T11:38:48;5.77;;;4.17;;
7933;SDS011;4012;48.896;9.192;2022-12-07T11:41:20;6.33;;;4.70;;
7933;SDS011;4012;48.896;9.192;2022-12-07T11:46:16;8.47;;;5.90;;
7933;SDS011;4012;48.896;9.192;2022-12-07T11:51:51;11.63;;;5.40;;
7933;SDS011;4012;48.896;9.192;2022-12-07T11:54:25;8.03;;;4.43;;
7933;SDS011;4012;48.896;9.192;2022-12-07T11:56:55;8.57;;;5.67;;
7933;SDS011;4012;48.896;9.192;2022-12-07T11:59:30;10.80;;;5.60;;
7933;SDS011;4012;48.896;9.192;2022-12-07T12:07:30;6.60;;;5.40;;
7933;SDS011;4012;48.896;9.192;2022-12-07T12:09:58;6.37;;;5.00;;
7933;SDS011;4012;48.896;9.192;2022-12-07T12:15:28;7.00;;;5.40;;
7933;SDS011;4012;48.896;9.192;2022-12-07T12:21:04;7.07;;;5.10;;
7933;SDS011;4012;48.896;9.192;2022-12-07T12:23:36;9.23;;;6.03;;
7933;SDS011;4012;48.896;9.192;2022-12-07T12:26:14;10.60;;;6.40;;
7933;SDS011;4012;48.896;9.192;2022-12-07T12:28:58;9.73;;;6.60;;
7933;SDS011;4012;48.896;9.192;2022-12-07T12:31:47;9.77;;;6.83;;
7933;SDS011;4012;48.896;9.192;2022-12-07T12:37:48;9.07;;;6.43;;
7933;SDS011;4012;48.896;9.192;2022-12-07T12:42:55;11.73;;;7.33;;
7933;SDS011;4012;48.896;9.192;2022-12-07T12:47:56;6.50;;;5.20;;
7933;SDS011;4012;48.896;9.192;2022-12-07T12:50:23;5.23;;;4.27;;
7933;SDS011;4012;48.896;9.192;2022-12-07T12:56:08;6.13;;;4.67;;
7933;SDS011;4012;48.896;9.192;2022-12-07T12:58:41;9.13;;;5.60;;
7933;SDS011;4012;48.896;9.192;2022-12-07T13:03:52;12.77;;;8.37;;
7933;SDS011;4012;48.896;9.192;2022-12-07T13:06:28;11.73;;;7.83;;
7933;SDS011;4012;48.896;9.192;2022-12-07T13:09:00;6.73;;;5.37;;
7933;SDS011;4012;48.896;9.192;2022-12-07T13:11:36;14.33;;;8.53;;
7933;SDS011;4012;48.896;9.192;2022-12-07T13:17:07;9.67;;;7.03;;
7933;SDS011;4012;48.896;9.192;2022-12-07T13:27:24;9.70;;;7.57;;
7933;SDS011;4012;48.896;9.192;2022-12-07T13:29:51;10.20;;;6.33;;
7933;SDS011;4012;48.896;9.192;2022-12-07T13:32:24;9.07;;;6.07;;
7933;SDS011;4012;48.896;9.192;2022-12-07T13:34:55;8.20;;;6.20;;
7933;SDS011;4012;48.896;9.192;2022-12-07T13:37:27;10.03;;;6.10;;
7933;SDS011;4012;48.896;9.192;2022-12-07T13:40:12;8.67;;;6.47;;
7933;SDS011;4012;48.896;9.192;2022-12-07T13:42:43;16.47;;;8.13;;
7933;SDS011;4012;48.896;9.192;2022-12-07T13:45:26;8.97;;;6.33;;
7933;SDS011;4012;48.896;9.192;2022-12-07T13:48:22;8.53;;;5.87;;
7933;SDS011;4012;48.896;9.192;2022-12-07T13:50:55;8.97;;;6.60;;
7933;SDS011;4012;48.896;9.192;2022-12-07T13:53:23;11.30;;;7.43;;
7933;SDS011;4012;48.896;9.192;2022-12-07T13:55:49;8.80;;;6.27;;
7933;SDS011;4012;48.896;9.192;2022-12-07T13:58:15;11.40;;;6.97;;
7933;SDS011;4012;48.896;9.192;2022-12-07T14:00:42;13.17;;;6.97;;
7933;SDS011;4012;48.896;9.192;2022-12-07T14:05:37;10.50;;;7.27;;
7933;SDS011;4012;48.896;9.192;2022-12-07T14:08:05;8.00;;;6.13;;
7933;SDS011;4012;48.896;9.192;2022-12-07T14:10:34;10.10;;;6.80;;
7933;SDS011;4012;48.896;9.192;2022-12-07T14:13:03;9.23;;;6.67;;
7933;SDS011;4012;48.896;9.192;2022-12-07T14:15:50;9.00;;;5.73;;
7933;SDS011;4012;48.896;9.192;2022-12-07T14:18:26;9.87;;;6.67;;
7933;SDS011;4012;48.896;9.192;2022-12-07T14:21:02;9.50;;;6.40;;
7933;SDS011;4012;48.896;9.192;2022-12-07T14:23:34;10.27;;;7.37;;
7933;SDS011;4012;48.896;9.192;2022-12-07T14:28:34;8.73;;;6.20;;
7933;SDS011;4012;48.896;9.192;2022-12-07T14:31:01;11.23;;;6.40;;
7933;SDS011;4012;48.896;9.192;2022-12-07T14:33:27;9.97;;;7.43;;
7933;SDS011;4012;48.896;9.192;2022-12-07T14:35:54;12.63;;;7.87;;
7933;SDS011;4012;48.896;9.192;2022-12-07T14:38:22;12.80;;;7.80;;
7933;SDS011;4012;48.896;9.192;2022-12-07T14:40:49;10.37;;;6.73;;
7933;SDS011;4012;48.896;9.192;2022-12-07T14:43:16;10.77;;;6.90;;
7933;SDS011;4012;48.896;9.192;2022-12-07T14:45:43;10.60;;;6.27;;
7933;SDS011;4012;48.896;9.192;2022-12-07T14:48:13;12.27;;;7.03;;
7933;SDS011;4012;48.896;9.192;2022-12-07T14:50:49;13.97;;;7.93;;
7933;SDS011;4012;48.896;9.192;2022-12-07T14:53:18;10.27;;;6.73;;
7933;SDS011;4012;48.896;9.192;2022-12-07T14:55:51;10.13;;;6.47;;
7933;SDS011;4012;48.896;9.192;2022-12-07T14:58:17;9.50;;;6.27;;
7933;SDS011;4012;48.896;9.192;2022-12-07T15:00:43;9.90;;;6.50;;
7933;SDS011;4012;48.896;9.192;2022-12-07T15:03:10;12.97;;;6.90;;
7933;SDS011;4012;48.896;9.192;2022-12-07T15:05:37;7.37;;;5.30;;
7933;SDS011;4012;48.896;9.192;2022-12-07T15:08:04;11.60;;;6.17;;
7933;SDS011;4012;48.896;9.192;2022-12-07T15:10:31;9.00;;;5.57;;
7933;SDS011;4012;48.896;9.192;2022-12-07T15:12:58;8.00;;;5.93;;
7933;SDS011;4012;48.896;9.192;2022-12-07T15:15:43;8.47;;;5.60;;
7933;SDS011;4012;48.896;9.192;2022-12-07T15:18:08;9.93;;;6.63;;
7933;SDS011;4012;48.896;9.192;2022-12-07T15:20:34;11.50;;;6.50;;
7933;SDS011;4012;48.896;9.192;2022-12-07T15:22:59;10.20;;;6.53;;
7933;SDS011;4012;48.896;9.192;2022-12-07T15:25:25;8.27;;;5.23;;
7933;SDS011;4012;48.896;9.192;2022-12-07T15:27:51;9.47;;;6.37;;
7933;SDS011;4012;48.896;9.192;2022-12-07T15:30:16;11.97;;;6.90;;
7933;SDS011;4012;48.896;9.192;2022-12-07T15:32:42;13.77;;;8.70;;
7933;SDS011;4012;48.896;9.192;2022-12-07T15:35:09;9.63;;;6.67;;
7933;SDS011;4012;48.896;9.192;2022-12-07T15:37:34;9.83;;;7.43;;
7933;SDS011;4012;48.896;9.192;2022-12-07T15:40:00;8.87;;;6.57;;
7933;SDS011;4012;48.896;9.192;2022-12-07T15:42:26;11.53;;;7.90;;
7933;SDS011;4012;48.896;9.192;2022-12-07T15:44:51;17.43;;;10.47;;
7933;SDS011;4012;48.896;9.192;2022-12-07T15:47:36;10.67;;;7.87;;
7933;SDS011;4012;48.896;9.192;2022-12-07T15:50:09;13.17;;;7.87;;
7933;SDS011;4012;48.896;9.192;2022-12-07T15:52:36;14.23;;;7.77;;
7933;SDS011;4012;48.896;9.192;2022-12-07T15:55:03;10.80;;;7.27;;
7933;SDS011;4012;48.896;9.192;2022-12-07T15:57:32;11.57;;;7.03;;
7933;SDS011;4012;48.896;9.192;2022-12-07T16:00:00;11.23;;;7.23;;
7933;SDS011;4012;48.896;9.192;2022-12-07T16:02:26;14.30;;;8.60;;
7933;SDS011;4012;48.896;9.192;2022-12-07T16:04:51;18.43;;;10.37;;
7933;SDS011;4012;48.896;9.192;2022-12-07T16:07:18;19.40;;;11.93;;
7933;SDS011;4012;48.896;9.192;2022-12-07T16:09:44;13.27;;;8.13;;
7933;SDS011;4012;48.896;9.192;2022-12-07T16:12:11;14.57;;;8.63;;
7933;SDS011;4012;48.896;9.192;2022-12-07T16:14:38;12.63;;;7.97;;
7933;SDS011;4012;48.896;9.192;2022-12-07T16:17:04;12.17;;;7.90;;
7933;SDS011;4012;48.896;9.192;2022-12-07T16:19:31;12.17;;;8.10;;
7933;SDS011;4012;48.896;9.192;2022-12-07T16:21:58;7.67;;;6.13;;
7933;SDS011;4012;48.896;9.192;2022-12-07T16:24:24;13.20;;;8.33;;
7933;SDS011;4012;48.896;9.192;2022-12-07T16:26:52;15.43;;;9.50;;
7933;SDS011;4012;48.896;9.192;2022-12-07T16:29:18;10.03;;;7.07;;
7933;SDS011;4012;48.896;9.192;2022-12-07T16:31:46;11.30;;;7.57;;
7933;SDS011;4012;48.896;9.192;2022-12-07T16:34:15;16.07;;;10.60;;
7933;SDS011;4012;48.896;9.192;2022-12-07T16:36:46;12.07;;;8.07;;
7933;SDS011;4012;48.896;9.192;2022-12-07T16:39:12;8.97;;;6.67;;
7933;SDS011;4012;48.896;9.192;2022-12-07T16:41:38;11.53;;;6.37;;
7933;SDS011;4012;48.896;9.192;2022-12-07T16:44:04;19.10;;;11.07;;
7933;SDS011;4012;48.896;9.192;2022-12-07T16:46:38;9.87;;;6.63;;
7933;SDS011;4012;48.896;9.192;2022-12-07T16:49:04;11.53;;;7.40;;
7933;SDS011;4012;48.896;9.192;2022-12-07T16:51:30;9.03;;;6.60;;
7933;SDS011;4012;48.896;9.192;2022-12-07T16:53:56;13.33;;;7.73;;
7933;SDS011;4012;48.896;9.192;2022-12-07T16:56:22;11.17;;;6.67;;
7933;SDS011;4012;48.896;9.192;2022-12-07T16:58:48;9.10;;;5.97;;
7933;SDS011;4012;48.896;9.192;2022-12-07T17:01:15;10.33;;;6.43;;